createdAt,value
2019-01-05T00:00:28.684Z,18.77
2019-01-05T00:03:16.089Z,17.80
2019-01-05T00:06:19.946Z,17.17
2019-01-05T00:09:07.325Z,20.47
2019-01-05T00:12:08.469Z,16.13
2019-01-05T00:15:04.049Z,19.00
2019-01-05T00:17:59.645Z,15.63
2019-01-05T00:20:42.017Z,16.83
2019-01-05T00:23:49.748Z,20.47
2019-01-05T00:26:40.899Z,16.50
2019-01-05T00:29:45.272Z,19.03
2019-01-05T00:33:05.004Z,19.90
2019-01-05T00:36:15.525Z,21.10
2019-01-05T00:39:16.963Z,20.97
2019-01-05T00:42:06.850Z,16.70
2019-01-05T00:45:14.407Z,16.20
2019-01-05T00:48:02.301Z,18.90
2019-01-05T00:51:11.594Z,20.25
2019-01-05T00:54:01.135Z,14.50
2019-01-05T00:56:59.009Z,17.07
2019-01-05T01:00:01.108Z,20.27
2019-01-05T01:02:49.028Z,20.73
2019-01-05T01:05:43.847Z,17.23
2019-01-05T01:08:35.645Z,18.30
2019-01-05T01:11:34.891Z,16.37
2019-01-05T01:14:37.075Z,15.57
2019-01-05T01:17:40.982Z,17.93
2019-01-05T01:20:28.967Z,18.97
2019-01-05T01:23:12.828Z,16.40
2019-01-05T01:26:00.654Z,23.87
2019-01-05T01:28:48.432Z,19.37
2019-01-05T01:31:46.571Z,15.10
2019-01-05T01:34:47.945Z,18.80
2019-01-05T01:37:46.481Z,16.37
2019-01-05T01:40:43.535Z,23.00
2019-01-05T01:43:34.440Z,30.00
2019-01-05T01:46:32.601Z,33.23
2019-01-05T01:49:21.541Z,33.63
2019-01-05T01:52:11.134Z,38.00
2019-01-05T01:55:01.307Z,40.10
2019-01-05T01:57:52.049Z,36.63
2019-01-05T02:00:47.623Z,34.80
2019-01-05T02:03:54.451Z,30.30
2019-01-05T02:06:54.100Z,23.10
2019-01-05T02:09:42.340Z,25.17
2019-01-05T02:12:31.256Z,28.63
2019-01-05T02:15:21.404Z,23.50
2019-01-05T02:18:50.775Z,22.97
2019-01-05T02:22:18.737Z,27.37
2019-01-05T02:25:49.442Z,19.90
2019-01-05T02:29:11.236Z,17.43
2019-01-05T02:32:48.104Z,15.57
2019-01-05T02:36:10.799Z,18.77
2019-01-05T02:39:51.488Z,13.23
2019-01-05T02:43:41.849Z,16.43
2019-01-05T02:47:25.224Z,15.93
2019-01-05T02:50:59.981Z,16.43
2019-01-05T02:54:33.593Z,15.70
2019-01-05T02:57:40.097Z,16.80
2019-01-05T03:01:39.572Z,14.87
2019-01-05T03:05:31.612Z,17.73
2019-01-05T03:09:00.810Z,16.07
2019-01-05T03:12:25.467Z,15.53
2019-01-05T03:15:58.402Z,12.00
2019-01-05T03:19:31.091Z,13.53
2019-01-05T03:23:00.987Z,18.53
2019-01-05T03:26:40.094Z,18.10
2019-01-05T03:30:13.851Z,14.93
2019-01-05T03:33:44.170Z,15.87
2019-01-05T03:37:27.202Z,15.83
2019-01-05T03:41:08.922Z,15.50
2019-01-05T03:45:08.485Z,13.43
2019-01-05T03:48:52.193Z,16.73
2019-01-05T03:52:35.005Z,15.97
2019-01-05T03:56:01.357Z,16.47
2019-01-05T03:59:43.131Z,14.03
2019-01-05T04:02:49.608Z,12.50
2019-01-05T04:06:18.914Z,14.00
2019-01-05T04:09:57.245Z,12.33
2019-01-05T04:13:50.808Z,18.60
2019-01-05T04:17:31.802Z,17.97
2019-01-05T04:21:26.770Z,14.93
2019-01-05T04:25:02.661Z,13.23
2019-01-05T04:28:20.471Z,14.63
2019-01-05T04:32:08.224Z,13.10
2019-01-05T04:36:01.287Z,15.43
2019-01-05T04:39:26.333Z,20.93
2019-01-05T04:43:15.303Z,19.80
2019-01-05T04:46:50.728Z,21.10
2019-01-05T04:50:28.548Z,23.93
2019-01-05T04:53:54.622Z,21.40
2019-01-05T04:57:17.333Z,17.00
2019-01-05T05:00:47.258Z,22.00
2019-01-05T05:03:57.869Z,24.70
2019-01-05T05:07:25.717Z,22.83
2019-01-05T05:10:51.404Z,23.37
2019-01-05T05:14:14.398Z,27.77
2019-01-05T05:17:50.389Z,22.90
2019-01-05T05:21:14.206Z,21.60
2019-01-05T05:24:48.356Z,26.07
2019-01-05T05:28:27.999Z,21.37
2019-01-05T05:31:52.595Z,23.50
2019-01-05T05:35:38.457Z,17.60
2019-01-05T05:39:15.023Z,22.98
2019-01-05T05:42:50.826Z,20.13
2019-01-05T05:46:28.243Z,19.93
2019-01-05T05:50:03.654Z,15.90
2019-01-05T05:53:43.556Z,16.50
2019-01-05T05:57:13.601Z,16.00
2019-01-05T06:00:40.128Z,14.80
2019-01-05T06:04:29.211Z,16.63
2019-01-05T06:08:06.642Z,18.85
2019-01-05T06:11:56.888Z,13.70
2019-01-05T06:15:38.087Z,11.67
2019-01-05T06:19:05.929Z,13.07
2019-01-05T06:22:37.963Z,13.87
2019-01-05T06:25:59.803Z,13.90
2019-01-05T06:29:33.122Z,12.50
2019-01-05T06:32:49.996Z,11.97
2019-01-05T06:36:33.280Z,10.03
2019-01-05T06:40:03.604Z,13.03
2019-01-05T06:43:44.501Z,12.63
2019-01-05T06:47:11.264Z,13.10
2019-01-05T06:50:49.559Z,14.57
2019-01-05T06:54:17.874Z,13.30
2019-01-05T06:57:50.117Z,13.47
2019-01-05T07:01:45.409Z,10.77
2019-01-05T07:05:05.535Z,13.30
2019-01-05T07:08:29.412Z,16.33
2019-01-05T07:12:05.033Z,9.97
2019-01-05T07:15:36.155Z,12.50
2019-01-05T07:19:07.783Z,11.03
2019-01-05T07:22:20.463Z,11.37
2019-01-05T07:26:06.920Z,14.90
2019-01-05T07:29:22.883Z,12.60
2019-01-05T07:33:08.651Z,13.57
2019-01-05T07:37:05.367Z,10.67
2019-01-05T07:40:35.286Z,16.23
2019-01-05T07:44:04.703Z,15.53
2019-01-05T07:47:46.926Z,10.57
2019-01-05T07:51:22.174Z,11.30
2019-01-05T07:55:11.047Z,12.97
2019-01-05T07:58:20.074Z,11.07
2019-01-05T08:02:09.168Z,12.73
2019-01-05T08:05:23.093Z,8.30
2019-01-05T08:08:58.355Z,14.23
2019-01-05T08:12:39.872Z,8.33
2019-01-05T08:16:16.782Z,14.43
2019-01-05T08:19:36.606Z,14.33
2019-01-05T08:23:02.835Z,13.40
2019-01-05T08:26:28.114Z,14.30
2019-01-05T08:30:01.013Z,14.53
2019-01-05T08:33:27.715Z,10.40
2019-01-05T08:36:56.857Z,10.87
2019-01-05T08:40:37.195Z,9.70
2019-01-05T08:44:31.549Z,10.80
2019-01-05T08:48:30.830Z,10.93
2019-01-05T08:51:42.127Z,11.03
2019-01-05T08:55:05.549Z,15.20
2019-01-05T08:58:44.932Z,12.37
2019-01-05T09:02:08.697Z,13.43
2019-01-05T09:05:33.073Z,11.50
2019-01-05T09:09:02.908Z,10.10
2019-01-05T09:12:42.295Z,10.43
2019-01-05T09:16:19.165Z,8.63
2019-01-05T09:19:53.191Z,8.50
2019-01-05T09:23:29.554Z,11.90
2019-01-05T09:27:26.926Z,10.13
2019-01-05T09:31:01.544Z,10.70
2019-01-05T09:34:24.369Z,10.03
2019-01-05T09:37:58.689Z,9.47
2019-01-05T09:41:14.085Z,5.17
2019-01-05T09:44:48.533Z,7.33
2019-01-05T09:48:37.322Z,9.90
2019-01-05T09:52:10.246Z,10.87
2019-01-05T09:55:37.250Z,10.90
2019-01-05T09:59:17.486Z,7.17
2019-01-05T10:02:57.016Z,8.40
2019-01-05T10:06:09.725Z,9.23
2019-01-05T10:09:59.271Z,7.67
2019-01-05T10:13:54.674Z,8.47
2019-01-05T10:17:14.995Z,11.50
2019-01-05T10:20:46.028Z,9.97
2019-01-05T10:24:39.080Z,8.83
2019-01-05T10:28:11.129Z,10.27
2019-01-05T10:32:03.715Z,9.70
2019-01-05T10:35:40.717Z,10.30
2019-01-05T10:39:20.979Z,8.97
2019-01-05T10:43:00.348Z,8.57
2019-01-05T10:46:34.815Z,8.20
2019-01-05T10:49:57.572Z,7.47
2019-01-05T10:53:31.832Z,8.27
2019-01-05T10:56:46.572Z,6.50
2019-01-05T11:00:12.246Z,7.30
2019-01-05T11:03:42.053Z,10.40
2019-01-05T11:06:57.401Z,9.67
2019-01-05T11:10:55.867Z,7.67
2019-01-05T11:14:24.158Z,11.40
2019-01-05T11:18:02.961Z,10.83
2019-01-05T11:21:23.672Z,10.07
2019-01-05T11:25:01.345Z,15.67
2019-01-05T11:28:29.088Z,14.40
2019-01-05T11:31:56.705Z,12.17
2019-01-05T11:35:29.805Z,7.47
2019-01-05T11:39:07.005Z,9.67
2019-01-05T11:42:47.701Z,9.10
2019-01-05T11:46:16.109Z,8.67
2019-01-05T11:49:53.037Z,9.10
2019-01-05T11:53:39.039Z,9.63
2019-01-05T11:57:14.063Z,9.97
2019-01-05T12:00:49.767Z,8.83
2019-01-05T12:04:05.651Z,10.33
2019-01-05T12:07:47.378Z,9.20
2019-01-05T12:11:14.679Z,12.53
2019-01-05T12:14:28.323Z,10.53
2019-01-05T12:17:58.556Z,8.13
2019-01-05T12:21:34.913Z,8.50
2019-01-05T12:24:57.321Z,8.43
2019-01-05T12:28:40.441Z,8.40
2019-01-05T12:32:14.050Z,9.67
2019-01-05T12:35:58.328Z,7.93
2019-01-05T12:39:31.641Z,9.47
2019-01-05T12:43:11.188Z,7.83
2019-01-05T12:46:33.622Z,12.53
2019-01-05T12:49:59.892Z,9.70
2019-01-05T12:53:24.762Z,7.47
2019-01-05T12:57:03.092Z,8.20
2019-01-05T13:00:34.357Z,7.00
2019-01-05T13:04:03.143Z,6.83
2019-01-05T13:07:29.800Z,8.30
2019-01-05T13:11:01.813Z,8.30
2019-01-05T13:14:38.764Z,6.93
2019-01-05T13:17:54.656Z,6.70
2019-01-05T13:21:34.776Z,8.07
2019-01-05T13:25:24.298Z,9.73
2019-01-05T13:28:49.132Z,8.30
2019-01-05T13:32:32.251Z,8.57
2019-01-05T13:36:07.822Z,7.93
2019-01-05T13:39:45.388Z,7.17
2019-01-05T13:43:15.543Z,8.00
2019-01-05T13:47:01.166Z,8.00
2019-01-05T13:50:25.222Z,9.63
2019-01-05T13:53:46.417Z,9.80
2019-01-05T13:56:46.644Z,11.40
2019-01-05T13:59:34.174Z,8.17
2019-01-05T14:02:35.243Z,8.80
2019-01-05T14:05:43.019Z,11.10
2019-01-05T14:08:48.000Z,8.27
2019-01-05T14:11:45.602Z,9.23
2019-01-05T14:14:40.194Z,9.50
2019-01-05T14:17:28.996Z,8.33
2019-01-05T14:20:23.778Z,7.93
2019-01-05T14:23:11.716Z,8.23
2019-01-05T14:26:09.496Z,7.30
2019-01-05T14:29:04.771Z,7.90
2019-01-05T14:31:52.527Z,6.50
2019-01-05T14:34:51.755Z,11.77
2019-01-05T14:49:16.401Z,11.80
2019-01-05T14:52:20.261Z,8.17
2019-01-05T14:55:16.682Z,9.60
2019-01-05T14:58:23.809Z,8.90
2019-01-05T15:01:28.033Z,13.37
2019-01-05T15:04:16.696Z,11.20
2019-01-05T15:07:04.306Z,17.27
2019-01-05T15:09:52.997Z,10.43
2019-01-05T15:12:44.627Z,15.33
2019-01-05T15:15:30.688Z,15.13
2019-01-05T15:18:28.600Z,16.17
2019-01-05T15:21:35.572Z,12.70
2019-01-05T15:24:42.752Z,12.63
2019-01-05T15:27:49.613Z,11.77
2019-01-05T15:30:46.868Z,10.47
2019-01-05T15:33:35.331Z,12.53
2019-01-05T15:36:22.888Z,14.23
2019-01-05T15:39:24.066Z,13.70
2019-01-05T15:42:12.784Z,12.00
2019-01-05T15:45:07.849Z,13.13
2019-01-05T15:47:58.027Z,12.27
2019-01-05T15:50:55.727Z,10.73
2019-01-05T15:53:47.211Z,11.83
2019-01-05T15:56:35.945Z,13.47
2019-01-05T15:59:38.313Z,11.30
2019-01-05T16:02:25.710Z,12.90
2019-01-05T16:05:17.230Z,11.67
2019-01-05T16:08:21.033Z,13.97
2019-01-05T16:11:21.865Z,12.97
2019-01-05T16:14:09.969Z,14.67
2019-01-05T16:17:01.684Z,11.70
2019-01-05T16:19:56.186Z,11.23
2019-01-05T16:22:51.067Z,16.47
2019-01-05T16:25:38.318Z,11.90
2019-01-05T16:28:27.136Z,13.43
2019-01-05T16:31:21.728Z,15.03
2019-01-05T16:34:17.767Z,17.00
2019-01-05T16:37:05.109Z,18.00
2019-01-05T16:40:12.626Z,20.00
2019-01-05T16:43:06.449Z,33.90
2019-01-05T16:45:58.295Z,19.60
2019-01-05T16:48:45.445Z,16.77
2019-01-05T16:51:33.058Z,18.73
2019-01-05T16:54:20.382Z,19.70
2019-01-05T16:57:08.013Z,19.60
2019-01-05T16:59:56.666Z,18.53
2019-01-05T17:03:00.638Z,14.83
2019-01-05T17:05:53.647Z,13.97
2019-01-05T17:09:00.393Z,16.67
2019-01-05T17:12:03.923Z,17.97
2019-01-05T17:14:51.450Z,10.73
2019-01-05T17:17:30.954Z,10.63
2019-01-05T17:20:14.430Z,14.77
2019-01-05T17:23:02.198Z,14.93
2019-01-05T17:25:54.476Z,15.90
2019-01-05T17:28:49.936Z,16.27
2019-01-05T17:31:44.873Z,13.67
2019-01-05T17:34:36.204Z,10.27
2019-01-05T17:37:25.214Z,18.67
2019-01-05T17:40:22.717Z,23.63
2019-01-05T17:43:21.845Z,20.17
2019-01-05T17:46:19.947Z,20.33
2019-01-05T17:49:14.864Z,21.77
2019-01-05T17:52:15.810Z,19.97
2019-01-05T17:55:04.685Z,24.03
2019-01-05T17:57:52.252Z,25.17
2019-01-05T18:00:40.778Z,21.30
2019-01-05T18:03:38.121Z,25.20
2019-01-05T18:06:39.343Z,21.13
2019-01-05T18:09:31.282Z,33.07
2019-01-05T18:12:19.122Z,32.00
2019-01-05T18:15:20.042Z,40.87
2019-01-05T18:18:23.969Z,35.67
2019-01-05T18:21:18.622Z,26.30
2019-01-05T18:24:02.594Z,29.67
2019-01-05T18:26:57.773Z,37.50
2019-01-05T18:29:52.749Z,23.20
2019-01-05T18:32:44.251Z,18.13
2019-01-05T18:35:51.602Z,17.90
2019-01-05T18:38:39.117Z,18.33
2019-01-05T18:41:29.007Z,28.20
2019-01-05T18:44:29.909Z,21.37
2019-01-05T18:47:21.233Z,27.10
2019-01-05T18:50:13.706Z,33.80
2019-01-05T18:53:08.639Z,34.00
2019-01-05T18:56:00.400Z,35.77
2019-01-05T18:58:48.530Z,37.83
2019-01-05T19:01:38.977Z,28.73
2019-01-05T19:04:26.684Z,27.20
2019-01-05T19:07:24.391Z,20.77
2019-01-05T19:10:13.446Z,19.30
2019-01-05T19:13:00.756Z,23.77
2019-01-05T19:16:01.504Z,20.43
2019-01-05T19:19:02.130Z,19.70
2019-01-05T19:22:03.125Z,21.90
2019-01-05T19:24:51.853Z,26.23
2019-01-05T19:27:43.719Z,19.20
2019-01-05T19:30:32.394Z,20.50
2019-01-05T19:33:21.219Z,17.20
2019-01-05T19:36:15.914Z,16.57
2019-01-05T19:39:04.713Z,16.33
2019-01-05T19:42:08.609Z,16.63
2019-01-05T19:45:09.297Z,18.93
2019-01-05T19:47:56.546Z,19.23
2019-01-05T19:50:55.406Z,17.47
2019-01-05T19:53:44.281Z,20.67
2019-01-05T19:56:31.865Z,18.87
2019-01-05T19:59:19.429Z,19.40
2019-01-05T20:02:08.141Z,30.30
2019-01-05T20:05:09.879Z,21.00
2019-01-05T20:07:58.554Z,24.47
2019-01-05T20:10:53.319Z,26.47
2019-01-05T20:13:42.025Z,26.00
2019-01-05T20:16:29.604Z,24.30
2019-01-05T20:19:29.836Z,26.97
2019-01-05T20:22:24.417Z,26.53
2019-01-05T20:25:19.253Z,31.27
2019-01-05T20:28:10.952Z,33.53
2019-01-05T20:31:06.043Z,31.60
2019-01-05T20:33:54.731Z,30.83
2019-01-05T20:36:52.787Z,33.47
2019-01-05T20:39:37.545Z,22.70
2019-01-05T20:42:26.230Z,31.43
2019-01-05T20:45:14.956Z,26.53
2019-01-05T20:48:02.425Z,26.93
2019-01-05T20:50:50.917Z,25.47
2019-01-05T20:53:42.984Z,27.10
2019-01-05T20:56:33.629Z,29.13
2019-01-05T20:59:41.665Z,28.77
2019-01-05T21:02:37.825Z,31.07
2019-01-05T21:05:29.835Z,23.57
2019-01-05T21:08:18.697Z,26.00
2019-01-05T21:11:13.508Z,31.37
2019-01-05T21:14:08.277Z,29.67
2019-01-05T21:16:56.957Z,25.77
2019-01-05T21:19:52.859Z,25.77
2019-01-05T21:22:40.697Z,32.20
2019-01-05T21:25:29.810Z,31.77
2019-01-05T21:28:37.006Z,28.77
2019-01-05T21:31:24.674Z,24.23
2019-01-05T21:34:13.235Z,25.20
2019-01-05T21:37:05.934Z,26.13
2019-01-05T21:40:06.866Z,24.33
2019-01-05T21:43:07.471Z,25.47
2019-01-05T21:45:55.073Z,21.93
2019-01-05T21:48:42.365Z,20.23
2019-01-05T21:51:40.867Z,19.97
2019-01-05T21:54:37.198Z,19.37
2019-01-05T21:57:25.033Z,20.93
2019-01-05T22:00:12.582Z,18.47
2019-01-05T22:03:11.931Z,18.83
2019-01-05T22:06:03.486Z,17.10
2019-01-05T22:08:52.493Z,19.30
2019-01-05T22:11:44.140Z,15.73
2019-01-05T22:14:40.740Z,22.80
2019-01-05T22:17:28.456Z,18.33
2019-01-05T22:20:17.798Z,22.23
2019-01-05T22:23:09.063Z,19.43
2019-01-05T22:26:01.033Z,19.63
2019-01-05T22:28:49.760Z,20.33
2019-01-05T22:31:37.423Z,24.87
2019-01-05T22:34:34.951Z,23.93
2019-01-05T22:37:22.218Z,20.77
2019-01-05T22:40:22.881Z,19.87
2019-01-05T22:43:23.651Z,23.60
2019-01-05T22:46:12.320Z,17.17
2019-01-05T22:49:01.127Z,22.53
2019-01-05T22:51:51.977Z,21.53
2019-01-05T22:54:39.346Z,23.17
2019-01-05T22:57:34.054Z,17.90
2019-01-05T23:00:22.730Z,21.10
2019-01-05T23:03:10.156Z,21.30
2019-01-05T23:06:01.708Z,22.43
2019-01-05T23:09:05.741Z,21.90
2019-01-05T23:12:03.957Z,28.93
2019-01-05T23:14:51.416Z,24.07
2019-01-05T23:17:39.399Z,23.43
2019-01-05T23:20:26.517Z,20.17
2019-01-05T23:23:30.346Z,22.23
2019-01-05T23:26:21.565Z,26.20
2019-01-05T23:29:15.024Z,24.77
2019-01-05T23:32:01.698Z,23.77
2019-01-05T23:35:09.385Z,29.27
2019-01-05T23:37:56.775Z,25.70
2019-01-05T23:40:44.653Z,23.80
2019-01-05T23:43:45.738Z,27.53
2019-01-05T23:46:34.458Z,25.47
2019-01-05T23:49:23.171Z,29.90
2019-01-05T23:52:30.253Z,25.73
2019-01-05T23:55:17.939Z,22.47
2019-01-05T23:58:12.397Z,28.90
